createdAt,value
2022-11-04T00:02:03.713Z,14.63
2022-11-04T00:04:32.336Z,14.64
2022-11-04T00:07:00.632Z,14.62
2022-11-04T00:09:30.717Z,14.61
2022-11-04T00:12:17.674Z,14.60
2022-11-04T00:14:46.027Z,14.63
2022-11-04T00:17:19.994Z,14.64
2022-11-04T00:20:14.112Z,14.69
2022-11-04T00:23:01.726Z,14.70
2022-11-04T00:25:48.896Z,14.69
2022-11-04T00:28:37.756Z,14.69
2022-11-04T00:31:26.933Z,14.72
2022-11-04T00:33:58.255Z,14.66
2022-11-04T00:36:26.937Z,14.54
2022-11-04T00:38:55.052Z,14.51
2022-11-04T00:41:26.515Z,14.60
2022-11-04T00:44:01.301Z,14.65
2022-11-04T00:46:33.094Z,14.70
2022-11-04T00:49:01.418Z,14.60
2022-11-04T00:51:29.592Z,14.62
2022-11-04T00:53:58.474Z,14.48
2022-11-04T00:56:26.957Z,14.48
2022-11-04T00:58:55.067Z,14.53
2022-11-04T01:01:23.216Z,14.40
2022-11-04T01:03:54.083Z,14.40
2022-11-04T01:06:24.954Z,14.32
2022-11-04T01:09:02.012Z,14.30
2022-11-04T01:11:31.442Z,14.36
2022-11-04T01:13:59.614Z,14.35
2022-11-04T01:16:29.104Z,14.13
2022-11-04T01:18:59.042Z,14.10
2022-11-04T01:21:28.660Z,14.02
2022-11-04T01:23:57.255Z,14.06
2022-11-04T01:26:26.987Z,14.10
2022-11-04T01:28:57.739Z,14.12
2022-11-04T01:31:29.871Z,14.07
2022-11-04T01:33:59.420Z,14.10
2022-11-04T01:36:28.465Z,14.00
2022-11-04T01:38:57.607Z,14.03
2022-11-04T01:41:30.242Z,14.05
2022-11-04T01:44:02.430Z,14.08
2022-11-04T01:46:47.193Z,14.07
2022-11-04T01:49:27.128Z,13.99
2022-11-04T01:52:05.917Z,14.02
2022-11-04T01:54:36.733Z,13.95
2022-11-04T01:57:09.664Z,13.98
2022-11-04T01:59:41.901Z,14.00
2022-11-04T02:02:11.307Z,13.96
2022-11-04T02:04:40.253Z,13.94
2022-11-04T02:07:11.100Z,13.90
2022-11-04T02:09:40.613Z,13.88
2022-11-04T02:12:27.417Z,13.92
2022-11-04T02:14:58.354Z,13.92
2022-11-04T02:18:07.381Z,13.87
2022-11-04T02:20:58.479Z,13.81
2022-11-04T02:24:09.883Z,13.85
2022-11-04T02:27:13.485Z,13.85
2022-11-04T02:30:14.833Z,13.78
2022-11-04T02:33:07.066Z,13.65
2022-11-04T02:35:50.583Z,13.76
2022-11-04T02:38:54.537Z,13.71
2022-11-04T02:41:57.184Z,13.74
2022-11-04T02:44:32.132Z,13.75
2022-11-04T02:47:22.061Z,13.72
2022-11-04T02:50:22.389Z,13.68
2022-11-04T02:52:58.772Z,13.73
2022-11-04T02:55:52.394Z,13.74
2022-11-04T02:58:34.665Z,13.74
2022-11-04T03:01:05.316Z,13.73
2022-11-04T03:03:41.749Z,13.70
2022-11-04T03:06:13.543Z,13.59
2022-11-04T03:08:51.215Z,13.59
2022-11-04T03:11:26.013Z,13.64
2022-11-04T03:14:06.598Z,13.64
2022-11-04T03:16:53.295Z,13.57
2022-11-04T03:19:30.013Z,13.60
2022-11-04T03:22:27.128Z,13.39
2022-11-04T03:24:56.294Z,13.56
2022-11-04T03:28:04.574Z,13.52
2022-11-04T03:30:47.901Z,13.52
2022-11-04T03:33:38.631Z,13.56
2022-11-04T03:36:09.111Z,13.50
2022-11-04T03:38:38.301Z,13.40
2022-11-04T03:41:17.996Z,13.44
2022-11-04T03:43:46.107Z,13.44
2022-11-04T03:46:14.403Z,13.45
2022-11-04T03:48:45.509Z,13.45
2022-11-04T03:51:13.593Z,13.46
2022-11-04T03:53:42.734Z,13.44
2022-11-04T03:56:53.915Z,13.43
2022-11-04T03:59:34.233Z,13.47
2022-11-04T04:02:23.802Z,13.44
2022-11-04T04:05:03.649Z,13.49
2022-11-04T04:07:42.043Z,13.53
2022-11-04T04:10:42.069Z,13.51
2022-11-04T04:13:51.177Z,13.48
2022-11-04T04:16:43.616Z,13.51
2022-11-04T04:19:21.421Z,13.52
2022-11-04T04:22:01.499Z,13.50
2022-11-04T04:24:54.786Z,13.46
2022-11-04T04:27:33.191Z,13.43
2022-11-04T04:30:11.324Z,13.41
2022-11-04T04:32:56.121Z,13.36
2022-11-04T04:35:43.131Z,13.33
2022-11-04T04:38:48.773Z,13.29
2022-11-04T04:41:51.202Z,13.27
2022-11-04T04:44:47.369Z,13.22
2022-11-04T04:47:22.415Z,13.17
2022-11-04T04:49:59.225Z,13.13
2022-11-04T04:52:55.391Z,13.09
2022-11-04T04:55:23.467Z,13.11
2022-11-04T04:57:51.703Z,13.10
2022-11-04T05:00:21.443Z,13.13
2022-11-04T05:02:50.362Z,13.15
2022-11-04T05:05:19.316Z,13.17
2022-11-04T05:07:47.961Z,13.20
2022-11-04T05:10:17.603Z,13.22
2022-11-04T05:13:04.908Z,13.20
2022-11-04T05:15:33.089Z,13.13
2022-11-04T05:18:03.579Z,13.11
2022-11-04T05:20:34.319Z,13.10
2022-11-04T05:23:02.618Z,13.05
2022-11-04T05:25:30.720Z,12.96
2022-11-04T05:28:02.414Z,12.90
2022-11-04T05:30:30.487Z,12.85
2022-11-04T05:33:01.766Z,12.79
2022-11-04T05:35:34.832Z,12.77
2022-11-04T05:38:03.137Z,12.76
2022-11-04T05:40:34.674Z,12.74
2022-11-04T05:43:03.236Z,12.71
2022-11-04T05:45:31.462Z,12.72
2022-11-04T05:48:05.067Z,12.71
2022-11-04T05:50:34.842Z,12.67
2022-11-04T05:53:02.911Z,12.66
2022-11-04T05:55:30.999Z,12.60
2022-11-04T05:57:59.487Z,12.60
2022-11-04T06:00:28.211Z,12.63
2022-11-04T06:02:59.614Z,12.62
2022-11-04T06:05:28.603Z,12.60
2022-11-04T06:07:57.404Z,12.58
2022-11-04T06:10:26.184Z,12.59
2022-11-04T06:12:54.301Z,12.66
2022-11-04T06:15:22.347Z,12.71
2022-11-04T06:17:50.457Z,12.73
2022-11-04T06:20:18.511Z,12.72
2022-11-04T06:22:46.617Z,12.67
2022-11-04T06:25:14.795Z,12.65
2022-11-04T06:27:42.900Z,12.64
2022-11-04T06:30:12.919Z,12.64
2022-11-04T06:32:41.110Z,12.64
2022-11-04T06:35:09.287Z,12.67
2022-11-04T06:37:38.209Z,12.70
2022-11-04T06:40:07.371Z,12.73
2022-11-04T06:42:35.814Z,12.78
2022-11-04T06:45:04.168Z,12.79
2022-11-04T06:47:33.538Z,12.82
2022-11-04T06:50:02.022Z,12.80
2022-11-04T06:52:30.181Z,12.80
2022-11-04T06:54:58.270Z,12.79
2022-11-04T06:57:26.379Z,12.76
2022-11-04T06:59:54.574Z,12.76
2022-11-04T07:02:22.790Z,12.78
2022-11-04T07:04:51.111Z,12.77
2022-11-04T07:07:19.183Z,12.77
2022-11-04T07:09:47.239Z,12.79
2022-11-04T07:12:15.440Z,12.79
2022-11-04T07:14:43.524Z,12.79
2022-11-04T07:17:12.229Z,12.77
2022-11-04T07:19:40.290Z,12.80
2022-11-04T07:22:08.632Z,12.87
2022-11-04T07:24:37.318Z,12.90
2022-11-04T07:27:06.856Z,12.93
2022-11-04T07:29:34.897Z,12.93
2022-11-04T07:32:03.340Z,12.93
2022-11-04T07:34:31.422Z,12.97
2022-11-04T07:36:59.624Z,12.97
2022-11-04T07:39:27.711Z,12.96
2022-11-04T07:41:59.456Z,12.93
2022-11-04T07:44:27.833Z,12.92
2022-11-04T07:46:56.034Z,12.93
2022-11-04T07:49:25.556Z,12.96
2022-11-04T07:51:53.664Z,12.97
2022-11-04T07:54:22.006Z,12.95
2022-11-04T07:56:50.163Z,12.99
2022-11-04T07:59:18.245Z,13.06
2022-11-04T08:01:47.003Z,13.10
2022-11-04T08:04:15.138Z,13.15
2022-11-04T08:06:43.240Z,13.17
2022-11-04T08:09:11.322Z,13.24
2022-11-04T08:11:39.884Z,13.24
2022-11-04T08:14:09.287Z,13.26
2022-11-04T08:16:37.462Z,13.29
2022-11-04T08:19:05.570Z,13.31
2022-11-04T08:21:34.856Z,13.36
2022-11-04T08:24:06.150Z,13.37
2022-11-04T08:26:34.473Z,13.42
2022-11-04T08:29:08.102Z,13.43
2022-11-04T08:31:36.637Z,13.45
2022-11-04T08:34:06.278Z,13.51
2022-11-04T08:36:37.150Z,13.57
2022-11-04T08:39:10.380Z,13.61
2022-11-04T08:41:43.634Z,13.67
2022-11-04T08:44:14.961Z,13.66
2022-11-04T08:46:45.291Z,13.63
2022-11-04T08:49:17.774Z,13.71
2022-11-04T08:51:57.829Z,13.76
2022-11-04T08:54:27.785Z,13.78
2022-11-04T08:56:56.461Z,13.79
2022-11-04T08:59:25.301Z,13.83
2022-11-04T09:01:53.475Z,13.85
2022-11-04T09:04:21.550Z,13.85
2022-11-04T09:06:51.203Z,13.92
2022-11-04T09:09:19.994Z,13.97
2022-11-04T09:11:48.461Z,13.99
2022-11-04T09:14:18.014Z,14.02
2022-11-04T09:16:46.065Z,14.08
2022-11-04T09:19:14.129Z,14.11
2022-11-04T09:21:42.332Z,14.13
2022-11-04T09:24:11.732Z,14.15
2022-11-04T09:26:39.958Z,14.24
2022-11-04T09:29:09.896Z,14.24
2022-11-04T09:31:39.095Z,14.26
2022-11-04T09:34:07.297Z,14.27
2022-11-04T09:36:35.620Z,14.29
2022-11-04T09:39:04.424Z,14.32
2022-11-04T09:41:53.528Z,14.41
2022-11-04T09:45:19.521Z,14.43
2022-11-04T09:47:37.938Z,14.48
2022-11-04T09:50:11.514Z,14.50
2022-11-04T09:52:46.077Z,14.55
2022-11-04T09:55:42.029Z,14.57
2022-11-04T09:58:14.849Z,14.61
2022-11-04T10:00:50.137Z,14.66
2022-11-04T10:04:09.006Z,14.70
2022-11-04T10:07:22.356Z,14.85
2022-11-04T10:10:14.197Z,14.87
2022-11-04T10:13:31.980Z,14.90
2022-11-04T10:16:58.489Z,14.88
2022-11-04T10:19:35.423Z,14.98
2022-11-04T10:22:57.535Z,15.03
2022-11-04T10:25:49.828Z,15.13
2022-11-04T10:28:22.351Z,15.14
2022-11-04T10:30:52.617Z,15.19
2022-11-04T10:33:37.865Z,15.07
2022-11-04T10:36:11.320Z,15.18
2022-11-04T10:38:52.961Z,15.17
2022-11-04T10:41:37.964Z,15.19
2022-11-04T10:44:35.570Z,15.25
2022-11-04T10:47:28.849Z,15.25
2022-11-04T10:50:55.854Z,15.31
2022-11-04T10:53:28.495Z,15.39
2022-11-04T10:56:39.669Z,15.34
2022-11-04T10:59:28.865Z,15.36
2022-11-04T11:02:00.815Z,15.35
2022-11-04T11:04:35.368Z,15.41
2022-11-04T11:07:12.212Z,15.39
2022-11-04T11:09:43.178Z,15.40
2022-11-04T11:12:48.980Z,15.41
2022-11-04T11:15:26.368Z,15.44
2022-11-04T11:18:01.523Z,15.51
2022-11-04T11:20:32.509Z,15.60
2022-11-04T11:23:04.826Z,15.56
2022-11-04T11:25:36.088Z,15.56
2022-11-04T11:28:09.448Z,15.59
2022-11-04T11:31:08.642Z,15.63
2022-11-04T11:33:46.578Z,15.69
2022-11-04T11:36:22.059Z,15.70
2022-11-04T11:39:17.021Z,15.70
2022-11-04T11:41:59.983Z,15.75
2022-11-04T11:44:35.028Z,15.82
2022-11-04T11:47:07.098Z,15.89
2022-11-04T11:49:38.184Z,15.90
2022-11-04T11:52:35.392Z,15.93
2022-11-04T11:55:28.916Z,15.98
2022-11-04T12:01:51.746Z,16.01
2022-11-04T12:10:50.793Z,16.08
2022-11-04T12:13:28.790Z,16.14
2022-11-04T12:16:14.054Z,16.12
2022-11-04T12:19:25.941Z,16.10
2022-11-04T12:22:27.169Z,16.11
2022-11-04T12:25:09.986Z,16.14
2022-11-04T12:27:47.577Z,16.12
2022-11-04T12:30:24.129Z,16.14
2022-11-04T12:33:11.159Z,16.13
2022-11-04T12:36:03.898Z,16.11
2022-11-04T12:38:53.079Z,16.15
2022-11-04T12:42:32.486Z,16.13
2022-11-04T12:45:47.204Z,16.17
2022-11-04T12:48:34.606Z,16.19
2022-11-04T12:51:27.092Z,16.20
2022-11-04T12:54:34.973Z,16.22
2022-11-04T12:57:23.719Z,16.21
2022-11-04T13:00:19.138Z,16.17
2022-11-04T13:03:15.103Z,16.12
2022-11-04T13:06:26.225Z,16.09
2022-11-04T13:09:07.440Z,16.09
2022-11-04T13:11:56.374Z,16.02
2022-11-04T13:14:36.098Z,16.00
2022-11-04T13:17:13.994Z,16.01
2022-11-04T13:19:49.542Z,15.97
2022-11-04T13:22:31.184Z,15.96
2022-11-04T13:25:48.469Z,16.02
2022-11-04T13:28:20.510Z,16.07
2022-11-04T13:31:40.531Z,16.00
2022-11-04T13:34:33.339Z,16.00
2022-11-04T13:37:43.294Z,15.96
2022-11-04T13:40:42.122Z,15.90
2022-11-04T13:43:40.220Z,15.85
2022-11-04T13:46:19.208Z,15.87
2022-11-04T13:49:16.342Z,15.91
2022-11-04T13:51:48.350Z,15.89
2022-11-04T13:54:58.072Z,15.80
2022-11-04T13:57:33.836Z,15.84
2022-11-04T14:00:13.916Z,15.84
2022-11-04T14:03:00.473Z,15.80
2022-11-04T14:05:28.592Z,15.80
2022-11-04T14:08:02.695Z,15.77
2022-11-04T14:11:03.038Z,15.69
2022-11-04T14:13:35.129Z,15.62
2022-11-04T14:16:24.301Z,15.56
2022-11-04T14:18:54.014Z,15.55
2022-11-04T14:21:24.400Z,15.52
2022-11-04T14:24:03.175Z,15.50
2022-11-04T14:26:47.182Z,15.39
2022-11-04T14:29:28.176Z,15.33
2022-11-04T14:32:00.801Z,15.24
2022-11-04T14:34:37.831Z,15.15
2022-11-04T14:37:25.380Z,15.03
2022-11-04T14:40:00.995Z,14.98
2022-11-04T14:42:55.846Z,14.84
2022-11-04T14:45:40.483Z,14.67
2022-11-04T14:48:18.046Z,14.72
2022-11-04T14:50:53.249Z,14.69
2022-11-04T14:53:37.129Z,14.55
2022-11-04T14:56:23.800Z,14.50
2022-11-04T14:59:06.463Z,14.41
2022-11-04T15:01:40.599Z,14.36
2022-11-04T15:04:26.701Z,14.29
2022-11-04T15:07:01.051Z,14.21
2022-11-04T15:09:40.624Z,14.15
2022-11-04T15:12:33.693Z,14.14
2022-11-04T15:15:02.720Z,14.09
2022-11-04T15:17:33.800Z,14.03
2022-11-04T15:20:04.881Z,13.99
2022-11-04T15:22:32.985Z,13.96
2022-11-04T15:25:06.031Z,13.94
2022-11-04T15:27:35.149Z,13.96
2022-11-04T15:30:06.205Z,13.82
2022-11-04T15:32:34.318Z,13.71
2022-11-04T15:35:02.851Z,13.63
2022-11-04T15:37:31.199Z,13.67
2022-11-04T15:39:59.879Z,13.66
2022-11-04T15:42:39.804Z,13.70
2022-11-04T15:45:23.260Z,13.76
2022-11-04T15:48:26.148Z,13.75
2022-11-04T15:51:22.189Z,13.76
2022-11-04T15:54:03.110Z,13.75
2022-11-04T15:56:42.613Z,13.64
2022-11-04T15:59:18.832Z,13.58
2022-11-04T16:01:52.283Z,13.63
2022-11-04T16:04:25.343Z,13.65
2022-11-04T16:07:09.514Z,13.66
2022-11-04T16:09:54.964Z,13.74
2022-11-04T16:12:38.048Z,13.75
2022-11-04T16:15:06.638Z,13.74
2022-11-04T16:17:44.912Z,13.72
2022-11-04T16:20:18.134Z,13.74
2022-11-04T16:22:46.816Z,13.72
2022-11-04T16:25:23.558Z,13.73
2022-11-04T16:27:51.740Z,13.67
2022-11-04T16:30:23.543Z,13.63
2022-11-04T16:33:07.455Z,13.62
2022-11-04T16:35:36.149Z,13.47
2022-11-04T16:38:04.592Z,13.39
2022-11-04T16:40:34.136Z,13.38
2022-11-04T16:43:02.195Z,13.37
2022-11-04T16:45:36.759Z,13.35
2022-11-04T16:48:05.919Z,13.32
2022-11-04T16:50:34.028Z,13.35
2022-11-04T16:53:03.889Z,13.35
2022-11-04T16:55:32.711Z,13.34
2022-11-04T16:58:05.004Z,13.23
2022-11-04T17:00:33.891Z,13.19
2022-11-04T17:03:12.697Z,12.93
2022-11-04T17:05:40.860Z,12.84
2022-11-04T17:08:11.460Z,12.88
2022-11-04T17:10:39.567Z,12.76
2022-11-04T17:13:07.852Z,12.85
2022-11-04T17:15:36.212Z,12.88
2022-11-04T17:18:04.268Z,12.88
2022-11-04T17:20:33.838Z,12.88
2022-11-04T17:23:02.478Z,12.83
2022-11-04T17:25:30.701Z,12.79
2022-11-04T17:27:58.884Z,12.78
2022-11-04T17:30:27.080Z,12.85
2022-11-04T17:32:55.404Z,12.89
2022-11-04T17:35:23.729Z,12.94
2022-11-04T17:37:53.971Z,12.98
2022-11-04T17:40:24.243Z,13.02
2022-11-04T17:43:12.584Z,13.06
2022-11-04T17:45:42.960Z,13.05
2022-11-04T17:48:14.279Z,13.06
2022-11-04T17:50:42.669Z,13.08
2022-11-04T17:53:11.103Z,13.02
2022-11-04T17:55:40.801Z,12.88
2022-11-04T17:58:09.120Z,12.89
2022-11-04T18:00:37.333Z,12.91
2022-11-04T18:03:06.979Z,12.94
2022-11-04T18:05:35.279Z,12.99
2022-11-04T18:08:04.706Z,12.97
2022-11-04T18:10:32.785Z,12.98
2022-11-04T18:13:00.868Z,12.89
2022-11-04T18:15:28.950Z,12.91
2022-11-04T18:17:57.488Z,12.97
2022-11-04T18:20:25.597Z,13.00
2022-11-04T18:22:53.924Z,12.96
2022-11-04T18:25:22.000Z,12.93
2022-11-04T18:27:50.060Z,12.95
2022-11-04T18:30:18.286Z,13.01
2022-11-04T18:32:46.341Z,13.05
2022-11-04T18:35:14.544Z,13.04
2022-11-04T18:37:47.106Z,13.03
2022-11-04T18:40:16.709Z,12.89
2022-11-04T18:42:44.935Z,12.88
2022-11-04T18:45:13.361Z,12.88
2022-11-04T18:47:41.441Z,12.94
2022-11-04T18:50:10.720Z,12.99
2022-11-04T18:52:38.826Z,13.01
2022-11-04T18:55:08.228Z,13.05
2022-11-04T18:57:36.408Z,13.06
2022-11-04T19:00:05.569Z,13.04
2022-11-04T19:02:33.847Z,12.99
2022-11-04T19:05:02.000Z,12.97
2022-11-04T19:07:30.058Z,12.88
2022-11-04T19:09:58.378Z,12.87
2022-11-04T19:12:45.184Z,12.88
2022-11-04T19:15:13.285Z,12.89
2022-11-04T19:17:41.347Z,12.89
2022-11-04T19:20:12.514Z,12.81
2022-11-04T19:22:41.356Z,12.78
2022-11-04T19:25:10.660Z,12.79
2022-11-04T19:27:38.961Z,12.86
2022-11-04T19:30:08.879Z,12.91
2022-11-04T19:32:37.282Z,12.97
2022-11-04T19:35:05.867Z,12.99
2022-11-04T19:37:33.924Z,13.00
2022-11-04T19:40:02.033Z,13.04
2022-11-04T19:42:48.843Z,13.00
2022-11-04T19:45:17.757Z,13.01
2022-11-04T19:47:45.934Z,13.03
2022-11-04T19:50:14.259Z,13.02
2022-11-04T19:52:43.059Z,12.95
2022-11-04T19:55:36.489Z,12.97
2022-11-04T19:58:04.906Z,13.04
2022-11-04T20:00:33.708Z,13.05
2022-11-04T20:03:01.796Z,13.08
2022-11-04T20:05:29.996Z,13.06
2022-11-04T20:08:03.122Z,13.10
2022-11-04T20:10:37.796Z,13.17
2022-11-04T20:13:24.959Z,13.20
2022-11-04T20:15:53.070Z,13.21
2022-11-04T20:18:21.395Z,13.22
2022-11-04T20:20:49.566Z,13.19
2022-11-04T20:23:17.650Z,13.14
2022-11-04T20:25:45.879Z,13.16
2022-11-04T20:28:13.938Z,13.16
2022-11-04T20:30:42.160Z,13.11
2022-11-04T20:33:10.338Z,13.13
2022-11-04T20:35:38.692Z,13.13
2022-11-04T20:38:07.414Z,13.14
2022-11-04T20:40:35.938Z,13.12
2022-11-04T20:43:05.069Z,13.11
2022-11-04T20:45:33.299Z,13.13
2022-11-04T20:48:01.356Z,13.15
2022-11-04T20:50:29.460Z,13.20
2022-11-04T20:52:57.518Z,13.12
2022-11-04T20:55:28.003Z,13.08
2022-11-04T20:57:56.084Z,13.11
2022-11-04T21:00:24.290Z,13.15
2022-11-04T21:02:52.453Z,13.14
2022-11-04T21:05:20.690Z,13.13
2022-11-04T21:07:48.774Z,13.21
2022-11-04T21:10:17.336Z,13.26
2022-11-04T21:12:45.560Z,13.23
2022-11-04T21:15:33.782Z,13.23
2022-11-04T21:18:01.862Z,13.24
2022-11-04T21:20:29.974Z,13.24
2022-11-04T21:22:58.027Z,13.22
2022-11-04T21:25:26.470Z,13.19
2022-11-04T21:27:54.551Z,13.18
2022-11-04T21:30:22.666Z,13.15
2022-11-04T21:32:50.717Z,13.16
2022-11-04T21:35:18.824Z,13.16
2022-11-04T21:37:46.883Z,13.22
2022-11-04T21:40:14.987Z,13.21
2022-11-04T21:42:43.047Z,13.17
2022-11-04T21:45:11.397Z,13.19
2022-11-04T21:47:40.079Z,13.13
2022-11-04T21:50:11.459Z,13.02
2022-11-04T21:52:43.296Z,13.08
2022-11-04T21:55:12.127Z,13.15
2022-11-04T21:57:40.183Z,13.18
2022-11-04T22:00:11.991Z,13.20
2022-11-04T22:02:47.439Z,13.24
2022-11-04T22:05:15.829Z,13.28
2022-11-04T22:08:02.632Z,13.26
2022-11-04T22:10:30.742Z,13.26
2022-11-04T22:12:58.823Z,13.23
2022-11-04T22:15:45.621Z,13.20
2022-11-04T22:18:16.201Z,13.19
2022-11-04T22:20:44.523Z,13.16
2022-11-04T22:23:12.895Z,13.15
2022-11-04T22:25:43.664Z,13.17
2022-11-04T22:28:19.345Z,13.16
2022-11-04T22:30:47.534Z,13.11
2022-11-04T22:33:15.616Z,13.09
2022-11-04T22:35:47.441Z,13.08
2022-11-04T22:38:15.505Z,13.07
2022-11-04T22:40:43.702Z,13.07
2022-11-04T22:43:12.034Z,13.06
2022-11-04T22:45:40.255Z,13.00
2022-11-04T22:48:08.311Z,13.02
2022-11-04T22:50:36.447Z,13.03
2022-11-04T22:53:04.484Z,13.04
2022-11-04T22:55:32.677Z,13.03
2022-11-04T22:58:00.795Z,12.99
2022-11-04T23:00:29.233Z,13.02
2022-11-04T23:02:58.614Z,13.03
2022-11-04T23:05:28.366Z,13.04
2022-11-04T23:07:56.929Z,13.00
2022-11-04T23:10:43.612Z,12.92
2022-11-04T23:13:30.081Z,12.99
2022-11-04T23:16:18.687Z,12.97
2022-11-04T23:18:51.566Z,12.98
2022-11-04T23:21:41.354Z,12.97
2022-11-04T23:24:28.266Z,12.97
2022-11-04T23:26:57.550Z,12.92
2022-11-04T23:29:44.260Z,12.94
2022-11-04T23:32:12.347Z,12.87
2022-11-04T23:34:59.135Z,12.91
2022-11-04T23:37:27.209Z,12.88
2022-11-04T23:39:55.427Z,12.80
2022-11-04T23:42:23.963Z,12.72
2022-11-04T23:45:14.005Z,12.75
2022-11-04T23:48:06.088Z,12.70
2022-11-04T23:50:53.639Z,12.50
2022-11-04T23:53:40.562Z,12.47
2022-11-04T23:56:30.095Z,12.53
2022-11-04T23:59:16.924Z,12.53
